createdAt,value
2023-01-13T00:01:14.795Z,1.20
2023-01-13T00:03:41.323Z,1.13
2023-01-13T00:06:08.341Z,1.27
2023-01-13T00:08:35.683Z,1.30
2023-01-13T00:11:02.284Z,1.07
2023-01-13T00:13:28.777Z,1.57
2023-01-13T00:15:59.187Z,1.20
2023-01-13T00:18:25.799Z,1.03
2023-01-13T00:21:02.792Z,1.20
2023-01-13T00:23:29.604Z,1.00
2023-01-13T00:26:00.334Z,1.27
2023-01-13T00:28:26.860Z,1.40
2023-01-13T00:30:53.459Z,1.10
2023-01-13T00:33:20.216Z,1.60
2023-01-13T00:35:55.909Z,1.10
2023-01-13T00:38:22.416Z,1.00
2023-01-13T00:41:01.895Z,1.20
2023-01-13T00:43:28.772Z,1.10
2023-01-13T00:45:55.329Z,1.10
2023-01-13T00:48:22.757Z,1.40
2023-01-13T00:50:59.650Z,1.13
2023-01-13T00:53:26.529Z,1.10
2023-01-13T00:56:03.134Z,1.30
2023-01-13T00:58:31.216Z,1.17
2023-01-13T01:01:06.326Z,1.10
2023-01-13T01:03:33.325Z,1.20
2023-01-13T01:06:16.887Z,1.20
2023-01-13T01:08:43.437Z,1.27
2023-01-13T01:11:13.783Z,1.20
2023-01-13T01:13:40.293Z,1.20
2023-01-13T01:16:14.656Z,1.27
2023-01-13T01:18:43.305Z,1.20
2023-01-13T01:21:09.853Z,1.20
2023-01-13T01:23:36.828Z,1.10
2023-01-13T01:26:05.194Z,1.10
2023-01-13T01:28:31.967Z,1.17
2023-01-13T01:30:59.699Z,1.03
2023-01-13T01:33:26.747Z,0.97
2023-01-13T01:35:54.053Z,1.13
2023-01-13T01:38:22.288Z,1.10
2023-01-13T01:40:49.222Z,1.30
2023-01-13T01:43:35.353Z,1.20
2023-01-13T01:46:01.924Z,1.10
2023-01-13T01:48:29.245Z,1.20
2023-01-13T01:50:55.796Z,1.13
2023-01-13T01:53:23.179Z,1.37
2023-01-13T01:55:49.716Z,1.10
2023-01-13T01:58:21.873Z,1.20
2023-01-13T02:00:48.640Z,1.30
2023-01-13T02:03:15.591Z,1.00
2023-01-13T02:05:42.424Z,1.00
2023-01-13T02:08:10.308Z,1.20
2023-01-13T02:10:36.797Z,1.20
2023-01-13T02:13:05.517Z,1.17
2023-01-13T02:15:47.090Z,1.20
2023-01-13T02:18:24.677Z,1.10
2023-01-13T02:20:59.489Z,1.07
2023-01-13T02:24:22.674Z,1.10
2023-01-13T02:26:54.851Z,1.23
2023-01-13T02:30:15.759Z,1.10
2023-01-13T02:33:14.297Z,1.00
2023-01-13T02:35:43.732Z,1.30
2023-01-13T02:38:10.902Z,1.23
2023-01-13T02:40:45.775Z,1.13
2023-01-13T02:43:51.669Z,1.03
2023-01-13T02:46:22.360Z,1.17
2023-01-13T02:48:48.933Z,1.20
2023-01-13T02:51:17.632Z,1.10
2023-01-13T02:53:53.670Z,1.20
2023-01-13T02:56:20.170Z,1.20
2023-01-13T02:58:46.702Z,1.00
2023-01-13T03:01:13.345Z,1.07
2023-01-13T03:03:39.997Z,1.10
2023-01-13T03:06:06.521Z,0.97
2023-01-13T03:08:54.874Z,1.10
2023-01-13T03:11:21.425Z,1.10
2023-01-13T03:14:01.692Z,1.00
2023-01-13T03:16:49.364Z,1.00
2023-01-13T03:19:35.626Z,1.00
2023-01-13T03:22:47.024Z,1.10
2023-01-13T03:25:18.637Z,1.10
2023-01-13T03:27:47.685Z,1.10
2023-01-13T03:30:32.558Z,1.13
2023-01-13T03:33:05.182Z,1.00
2023-01-13T03:35:44.219Z,1.00
2023-01-13T03:38:13.522Z,1.10
2023-01-13T03:40:44.289Z,1.27
2023-01-13T03:43:35.205Z,1.10
2023-01-13T03:46:06.637Z,1.20
2023-01-13T03:48:33.365Z,1.10
2023-01-13T03:51:06.358Z,1.00
2023-01-13T03:53:54.772Z,1.10
2023-01-13T03:56:43.222Z,1.10
2023-01-13T03:59:15.773Z,1.10
2023-01-13T04:01:45.853Z,1.20
2023-01-13T04:04:19.673Z,1.03
2023-01-13T04:06:58.487Z,1.00
2023-01-13T04:09:27.839Z,1.00
2023-01-13T04:12:15.298Z,1.00
2023-01-13T04:14:41.849Z,1.20
2023-01-13T04:17:08.374Z,0.97
2023-01-13T04:19:34.947Z,1.20
2023-01-13T04:22:01.530Z,1.10
2023-01-13T04:24:28.115Z,1.10
2023-01-13T04:26:56.511Z,1.10
2023-01-13T04:29:23.192Z,1.00
2023-01-13T04:31:49.712Z,1.10
2023-01-13T04:34:16.315Z,1.00
2023-01-13T04:36:42.907Z,0.90
2023-01-13T04:39:09.436Z,0.90
2023-01-13T04:41:54.799Z,0.90
2023-01-13T04:44:21.336Z,1.00
2023-01-13T04:46:47.905Z,1.00
2023-01-13T04:49:14.566Z,1.10
2023-01-13T04:51:41.110Z,1.10
2023-01-13T04:54:07.697Z,1.17
2023-01-13T04:56:34.260Z,1.00
2023-01-13T04:59:00.865Z,1.10
2023-01-13T05:01:27.536Z,0.97
2023-01-13T05:03:54.177Z,0.90
2023-01-13T05:06:20.826Z,1.00
2023-01-13T05:08:47.369Z,1.10
2023-01-13T05:11:34.158Z,0.97
2023-01-13T05:14:19.288Z,1.00
2023-01-13T05:17:03.563Z,0.90
2023-01-13T05:19:34.503Z,0.90
2023-01-13T05:22:19.740Z,1.20
2023-01-13T05:25:05.401Z,0.90
2023-01-13T05:27:32.254Z,1.03
2023-01-13T05:29:58.837Z,1.00
2023-01-13T05:32:25.552Z,1.20
2023-01-13T05:34:52.117Z,1.00
2023-01-13T05:37:18.652Z,1.13
2023-01-13T05:40:04.053Z,1.20
2023-01-13T05:42:49.325Z,1.10
2023-01-13T05:45:15.930Z,1.00
2023-01-13T05:47:42.539Z,1.00
2023-01-13T05:50:09.654Z,1.10
2023-01-13T05:52:36.299Z,1.00
2023-01-13T05:55:03.035Z,1.00
2023-01-13T05:57:29.784Z,1.00
2023-01-13T05:59:56.376Z,1.00
2023-01-13T06:02:22.918Z,1.20
2023-01-13T06:04:49.525Z,1.00
2023-01-13T06:07:16.037Z,0.90
2023-01-13T06:09:42.579Z,1.00
2023-01-13T06:12:11.647Z,0.70
2023-01-13T06:14:41.008Z,1.20
2023-01-13T06:17:11.931Z,1.13
2023-01-13T06:19:38.537Z,0.90
2023-01-13T06:22:35.697Z,1.10
2023-01-13T06:25:02.311Z,0.90
2023-01-13T06:27:28.849Z,0.80
2023-01-13T06:29:57.096Z,1.10
2023-01-13T06:32:26.116Z,0.90
2023-01-13T06:34:55.616Z,1.00
2023-01-13T06:37:25.342Z,1.17
2023-01-13T06:39:53.031Z,1.10
2023-01-13T06:42:38.291Z,0.90
2023-01-13T06:45:05.107Z,0.97
2023-01-13T06:47:31.613Z,1.00
2023-01-13T06:49:59.903Z,0.90
2023-01-13T06:52:30.360Z,0.90
2023-01-13T06:54:57.587Z,1.00
2023-01-13T06:57:24.521Z,1.00
2023-01-13T06:59:51.062Z,1.00
2023-01-13T07:02:17.703Z,1.00
2023-01-13T07:04:45.203Z,0.97
2023-01-13T07:07:12.437Z,1.00
2023-01-13T07:09:39.603Z,1.10
2023-01-13T07:12:06.355Z,1.00
2023-01-13T07:14:51.370Z,1.00
2023-01-13T07:17:25.103Z,0.80
2023-01-13T07:19:53.106Z,1.00
2023-01-13T07:22:19.803Z,1.00
2023-01-13T07:24:46.350Z,0.90
2023-01-13T07:27:12.955Z,0.70
2023-01-13T07:29:39.749Z,0.93
2023-01-13T07:32:07.869Z,0.80
2023-01-13T07:34:34.491Z,0.90
2023-01-13T07:37:01.142Z,0.93
2023-01-13T07:39:27.681Z,0.90
2023-01-13T07:42:12.824Z,1.00
2023-01-13T07:44:39.403Z,1.00
2023-01-13T07:47:06.103Z,0.90
2023-01-13T07:49:33.157Z,0.87
2023-01-13T07:51:59.733Z,0.90
2023-01-13T07:54:39.709Z,0.90
2023-01-13T07:57:07.017Z,1.10
2023-01-13T07:59:33.701Z,1.10
2023-01-13T08:02:00.514Z,1.00
2023-01-13T08:04:27.270Z,1.00
2023-01-13T08:06:53.804Z,1.00
2023-01-13T08:09:20.375Z,1.00
2023-01-13T08:12:06.885Z,1.10
2023-01-13T08:14:33.669Z,0.90
2023-01-13T08:17:00.209Z,1.00
2023-01-13T08:19:26.793Z,0.93
2023-01-13T08:21:53.317Z,0.90
2023-01-13T08:24:19.945Z,1.10
2023-01-13T08:26:46.561Z,1.00
2023-01-13T08:29:14.984Z,0.97
2023-01-13T08:31:41.775Z,0.83
2023-01-13T08:34:08.269Z,1.10
2023-01-13T08:36:34.908Z,1.00
2023-01-13T08:39:01.530Z,1.00
2023-01-13T08:41:46.716Z,0.90
2023-01-13T08:44:13.185Z,1.03
2023-01-13T08:46:39.786Z,0.90
2023-01-13T08:49:06.340Z,1.10
2023-01-13T08:51:32.870Z,0.90
2023-01-13T08:53:59.420Z,0.90
2023-01-13T08:56:25.938Z,1.00
2023-01-13T08:58:52.510Z,0.90
2023-01-13T09:01:22.244Z,0.90
2023-01-13T09:03:48.844Z,0.93
2023-01-13T09:06:15.335Z,0.90
2023-01-13T09:08:41.929Z,1.00
2023-01-13T09:11:30.433Z,0.90
2023-01-13T09:13:56.926Z,0.90
2023-01-13T09:16:23.443Z,0.93
2023-01-13T09:18:50.000Z,0.83
2023-01-13T09:21:16.603Z,1.00
2023-01-13T09:23:43.154Z,0.97
2023-01-13T09:26:09.883Z,0.90
2023-01-13T09:28:36.382Z,0.97
2023-01-13T09:31:03.013Z,1.00
2023-01-13T09:33:48.121Z,1.00
2023-01-13T09:36:14.611Z,0.90
2023-01-13T09:38:41.143Z,1.10
2023-01-13T09:41:32.838Z,0.90
2023-01-13T09:44:00.004Z,0.97
2023-01-13T09:46:47.748Z,0.90
2023-01-13T09:49:24.012Z,1.10
2023-01-13T09:52:03.829Z,1.00
2023-01-13T09:54:44.840Z,0.80
2023-01-13T09:57:12.812Z,1.00
2023-01-13T09:59:39.398Z,0.90
2023-01-13T10:02:39.785Z,0.90
2023-01-13T10:05:18.678Z,1.07
2023-01-13T10:07:49.731Z,0.80
2023-01-13T10:10:20.705Z,0.90
2023-01-13T10:13:06.411Z,0.93
2023-01-13T10:15:32.977Z,0.90
2023-01-13T10:18:16.315Z,1.00
2023-01-13T10:20:52.712Z,1.00
2023-01-13T10:23:51.400Z,1.10
2023-01-13T10:26:36.404Z,0.90
2023-01-13T10:29:02.929Z,1.03
2023-01-13T10:31:29.509Z,1.00
2023-01-13T10:34:00.153Z,0.90
2023-01-13T10:36:26.687Z,0.90
2023-01-13T10:38:53.186Z,1.00
2023-01-13T10:41:25.974Z,1.00
2023-01-13T10:43:52.420Z,0.90
2023-01-13T10:46:19.894Z,0.80
2023-01-13T10:48:53.209Z,1.03
2023-01-13T10:51:30.965Z,0.90
2023-01-13T10:54:12.881Z,1.00
2023-01-13T10:56:40.900Z,0.90
2023-01-13T10:59:19.551Z,0.80
2023-01-13T11:01:57.128Z,0.93
2023-01-13T11:04:34.041Z,1.00
2023-01-13T11:07:00.731Z,0.90
2023-01-13T11:09:27.541Z,0.90
2023-01-13T11:11:56.911Z,0.90
2023-01-13T11:14:42.737Z,0.80
2023-01-13T11:17:12.211Z,0.90
2023-01-13T11:19:42.462Z,1.00
2023-01-13T11:22:16.970Z,0.90
2023-01-13T11:24:51.345Z,0.80
2023-01-13T11:27:34.619Z,0.90
2023-01-13T11:30:03.253Z,0.90
2023-01-13T11:32:32.949Z,1.00
2023-01-13T11:35:05.011Z,1.00
2023-01-13T11:37:32.483Z,0.90
2023-01-13T11:40:36.753Z,0.90
2023-01-13T11:43:28.019Z,0.90
2023-01-13T11:45:56.598Z,0.90
2023-01-13T11:48:27.103Z,0.87
2023-01-13T11:50:59.104Z,0.90
2023-01-13T11:53:44.431Z,0.80
2023-01-13T11:56:48.541Z,1.00
2023-01-13T11:59:21.142Z,0.80
2023-01-13T12:01:57.652Z,0.80
2023-01-13T12:04:33.325Z,1.00
2023-01-13T12:06:59.868Z,0.80
2023-01-13T12:09:34.015Z,1.00
2023-01-13T12:12:23.440Z,0.90
2023-01-13T12:15:24.048Z,0.80
2023-01-13T12:18:07.073Z,1.00
2023-01-13T12:20:43.751Z,1.03
2023-01-13T12:23:36.213Z,1.00
2023-01-13T12:26:08.256Z,0.80
2023-01-13T12:28:56.310Z,1.00
2023-01-13T12:31:23.157Z,0.90
2023-01-13T12:34:01.476Z,1.00
2023-01-13T12:36:34.169Z,0.80
2023-01-13T12:39:40.307Z,1.00
2023-01-13T12:43:18.158Z,0.90
2023-01-13T12:45:44.757Z,0.90
2023-01-13T12:48:56.887Z,1.00
2023-01-13T12:51:26.421Z,0.90
2023-01-13T12:53:53.138Z,0.90
2023-01-13T12:56:34.834Z,0.90
2023-01-13T12:59:20.769Z,1.00
2023-01-13T13:02:09.281Z,1.00
2023-01-13T13:04:51.980Z,0.90
2023-01-13T13:07:30.649Z,0.93
2023-01-13T13:10:11.927Z,0.80
2023-01-13T13:13:00.164Z,0.90
2023-01-13T13:15:36.507Z,0.90
2023-01-13T13:18:08.669Z,0.90
2023-01-13T13:20:57.619Z,0.80
2023-01-13T13:23:33.267Z,1.10
2023-01-13T13:26:50.488Z,0.90
2023-01-13T13:29:43.498Z,1.00
2023-01-13T13:32:47.676Z,1.00
2023-01-13T13:35:20.040Z,0.80
2023-01-13T13:38:44.443Z,1.10
2023-01-13T13:41:32.229Z,1.00
2023-01-13T13:44:20.326Z,0.90
2023-01-13T13:46:47.446Z,1.20
2023-01-13T13:49:16.819Z,1.00
2023-01-13T13:52:04.938Z,0.93
2023-01-13T13:54:31.510Z,1.10
2023-01-13T13:56:58.980Z,0.90
2023-01-13T13:59:27.676Z,1.00
2023-01-13T14:02:01.301Z,1.00
2023-01-13T14:04:32.802Z,1.00
2023-01-13T14:07:06.844Z,0.93
2023-01-13T14:09:45.395Z,1.00
2023-01-13T14:12:24.719Z,1.00
2023-01-13T14:14:51.533Z,0.90
2023-01-13T14:17:25.022Z,0.97
2023-01-13T14:20:15.184Z,1.00
2023-01-13T14:22:47.294Z,1.20
2023-01-13T14:25:37.076Z,1.10
2023-01-13T14:28:11.516Z,1.10
2023-01-13T14:30:38.129Z,1.10
2023-01-13T14:33:05.143Z,0.90
2023-01-13T14:35:31.774Z,1.10
2023-01-13T14:38:01.698Z,1.00
2023-01-13T14:40:38.170Z,1.00
2023-01-13T14:43:10.797Z,0.93
2023-01-13T14:45:37.348Z,1.00
2023-01-13T14:48:06.970Z,0.90
2023-01-13T14:50:34.791Z,1.10
2023-01-13T14:53:01.393Z,0.90
2023-01-13T14:55:31.642Z,1.00
2023-01-13T14:58:28.446Z,0.97
2023-01-13T15:01:43.594Z,1.07
2023-01-13T15:04:38.185Z,1.03
2023-01-13T15:07:04.854Z,0.90
2023-01-13T15:09:38.912Z,1.00
2023-01-13T15:12:23.320Z,0.83
2023-01-13T15:14:52.629Z,0.90
2023-01-13T15:17:19.204Z,1.00
2023-01-13T15:19:45.745Z,1.00
2023-01-13T15:22:12.364Z,0.97
2023-01-13T15:24:38.922Z,1.00
2023-01-13T15:27:16.768Z,1.00
2023-01-13T15:29:43.329Z,1.07
2023-01-13T15:32:18.861Z,0.93
2023-01-13T15:34:46.878Z,0.90
2023-01-13T15:37:17.061Z,1.10
2023-01-13T15:39:43.950Z,1.00
2023-01-13T15:42:32.315Z,0.90
2023-01-13T15:45:17.591Z,1.20
2023-01-13T15:47:44.159Z,0.90
2023-01-13T15:50:18.420Z,1.00
2023-01-13T15:52:45.030Z,1.20
2023-01-13T15:55:11.592Z,1.00
2023-01-13T15:57:38.914Z,1.10
2023-01-13T16:00:13.825Z,1.10
2023-01-13T16:02:40.430Z,1.00
2023-01-13T16:05:08.369Z,1.00
2023-01-13T16:07:34.977Z,1.10
2023-01-13T16:10:03.450Z,0.90
2023-01-13T16:12:29.994Z,1.10
2023-01-13T16:14:56.618Z,1.10
2023-01-13T16:17:24.887Z,1.00
2023-01-13T16:19:51.564Z,1.20
2023-01-13T16:22:18.219Z,1.10
2023-01-13T16:24:44.760Z,1.10
2023-01-13T16:27:15.876Z,0.97
2023-01-13T16:29:43.008Z,1.20
2023-01-13T16:32:09.544Z,1.10
2023-01-13T16:34:36.295Z,1.10
2023-01-13T16:37:02.993Z,1.00
2023-01-13T16:39:30.908Z,1.00
2023-01-13T16:41:57.470Z,1.00
2023-01-13T16:44:23.986Z,1.00
2023-01-13T16:46:50.896Z,1.00
2023-01-13T16:49:18.350Z,1.13
2023-01-13T16:51:44.879Z,1.00
2023-01-13T16:54:12.225Z,0.90
2023-01-13T16:56:38.746Z,1.10
2023-01-13T16:59:07.591Z,1.00
2023-01-13T17:01:35.618Z,1.10
2023-01-13T17:04:02.818Z,1.00
2023-01-13T17:06:32.800Z,0.90
2023-01-13T17:09:23.567Z,1.10
2023-01-13T17:11:50.234Z,1.07
2023-01-13T17:14:19.570Z,1.10
2023-01-13T17:16:46.561Z,1.10
2023-01-13T17:19:13.303Z,0.90
2023-01-13T17:21:39.808Z,1.00
2023-01-13T17:24:07.863Z,1.10
2023-01-13T17:26:40.119Z,1.00
2023-01-13T17:29:11.729Z,0.97
2023-01-13T17:31:38.413Z,1.23
2023-01-13T17:34:05.031Z,1.20
2023-01-13T17:36:31.762Z,1.10
2023-01-13T17:38:58.511Z,1.00
2023-01-13T17:41:25.046Z,1.00
2023-01-13T17:43:52.413Z,1.10
2023-01-13T17:46:19.820Z,1.10
2023-01-13T17:48:46.976Z,1.00
2023-01-13T17:51:14.290Z,1.30
2023-01-13T17:53:40.847Z,1.10
2023-01-13T17:56:09.575Z,1.10
2023-01-13T17:58:37.413Z,0.97
2023-01-13T18:01:15.415Z,1.00
2023-01-13T18:03:42.055Z,0.90
2023-01-13T18:06:11.280Z,1.00
2023-01-13T18:08:37.854Z,1.03
2023-01-13T18:11:04.558Z,0.90
2023-01-13T18:13:33.595Z,1.00
2023-01-13T18:16:09.162Z,1.00
2023-01-13T18:18:35.666Z,1.00
2023-01-13T18:21:20.899Z,1.30
2023-01-13T18:24:06.153Z,1.10
2023-01-13T18:26:51.408Z,1.30
2023-01-13T18:29:18.600Z,1.37
2023-01-13T18:31:45.227Z,1.30
2023-01-13T18:34:11.703Z,1.20
2023-01-13T18:36:38.327Z,1.00
2023-01-13T18:39:04.838Z,1.20
2023-01-13T18:41:49.977Z,1.20
2023-01-13T18:44:16.535Z,1.20
2023-01-13T18:46:43.190Z,1.20
2023-01-13T18:49:09.687Z,1.30
2023-01-13T18:51:36.202Z,1.10
2023-01-13T18:54:02.706Z,1.20
2023-01-13T18:56:31.132Z,1.20
2023-01-13T18:58:57.742Z,1.20
2023-01-13T19:01:25.882Z,1.10
2023-01-13T19:04:03.651Z,1.23
2023-01-13T19:06:34.295Z,1.30
2023-01-13T19:09:08.182Z,1.20
2023-01-13T19:11:36.044Z,1.10
2023-01-13T19:14:03.137Z,1.30
2023-01-13T19:16:29.749Z,1.10
2023-01-13T19:18:56.389Z,1.23
2023-01-13T19:21:24.179Z,1.30
2023-01-13T19:23:57.717Z,1.30
2023-01-13T19:26:24.243Z,1.30
2023-01-13T19:28:50.892Z,1.13
2023-01-13T19:31:20.287Z,1.23
2023-01-13T19:33:46.837Z,1.23
2023-01-13T19:36:13.406Z,1.10
2023-01-13T19:38:39.941Z,1.30
2023-01-13T19:41:11.701Z,1.47
2023-01-13T19:43:56.814Z,1.30
2023-01-13T19:46:25.892Z,1.20
2023-01-13T19:48:52.403Z,1.13
2023-01-13T19:51:19.008Z,1.30
2023-01-13T19:53:46.820Z,1.20
2023-01-13T19:56:14.286Z,1.30
2023-01-13T19:58:42.065Z,1.30
2023-01-13T20:01:10.246Z,1.20
2023-01-13T20:03:37.756Z,1.40
2023-01-13T20:06:06.558Z,1.40
2023-01-13T20:08:33.212Z,1.37
2023-01-13T20:11:19.739Z,1.30
2023-01-13T20:13:46.248Z,1.40
2023-01-13T20:16:12.768Z,1.27
2023-01-13T20:18:39.332Z,1.40
2023-01-13T20:21:06.673Z,1.20
2023-01-13T20:23:33.276Z,1.30
2023-01-13T20:25:59.904Z,1.40
2023-01-13T20:28:26.507Z,1.50
2023-01-13T20:30:53.491Z,1.43
2023-01-13T20:33:20.140Z,1.50
2023-01-13T20:35:46.706Z,1.17
2023-01-13T20:38:13.281Z,1.50
2023-01-13T20:40:39.785Z,1.30
2023-01-13T20:43:06.513Z,1.43
2023-01-13T20:45:33.137Z,1.40
2023-01-13T20:47:59.686Z,1.50
2023-01-13T20:50:26.175Z,1.20
2023-01-13T20:52:52.792Z,1.30
2023-01-13T20:55:19.320Z,1.40
2023-01-13T20:57:48.802Z,1.30
2023-01-13T21:00:15.753Z,1.20
2023-01-13T21:02:43.995Z,1.30
2023-01-13T21:05:11.000Z,1.33
2023-01-13T22:04:27.135Z,1.50
2023-01-13T22:07:07.459Z,1.10
2023-01-13T22:09:49.574Z,1.50
2023-01-13T22:12:35.081Z,1.43
2023-01-13T22:15:16.269Z,1.40
2023-01-13T22:17:53.248Z,1.30
2023-01-13T22:20:44.864Z,1.43
2023-01-13T22:23:15.933Z,1.40
2023-01-13T22:25:53.168Z,1.17
2023-01-13T22:28:52.853Z,1.40
2023-01-13T22:34:34.539Z,1.37
2023-01-13T22:40:12.791Z,1.30
2023-01-13T22:42:51.097Z,1.17
2023-01-13T22:45:36.095Z,1.50
2023-01-13T22:48:10.556Z,1.33
2023-01-13T22:51:05.984Z,1.30
2023-01-13T22:53:48.260Z,1.30
2023-01-13T22:56:28.417Z,1.30
2023-01-13T23:01:59.859Z,1.37
2023-01-13T23:04:44.832Z,1.30
2023-01-13T23:07:20.963Z,1.10
2023-01-13T23:15:32.068Z,1.30
2023-01-13T23:21:12.610Z,1.30
2023-01-13T23:23:46.626Z,1.60
2023-01-13T23:26:24.015Z,1.20
2023-01-13T23:29:12.930Z,1.20
2023-01-13T23:31:44.889Z,1.40
2023-01-13T23:34:29.292Z,1.23
2023-01-13T23:37:29.601Z,1.30
2023-01-13T23:40:11.079Z,1.40
2023-01-13T23:42:52.779Z,1.40
2023-01-13T23:45:26.207Z,1.40
2023-01-13T23:48:08.260Z,1.20
2023-01-13T23:50:48.484Z,1.20
2023-01-13T23:53:23.630Z,1.33
2023-01-13T23:55:56.229Z,1.40
2023-01-13T23:58:38.442Z,1.40
